sensor_id;sensor_type;location;lat;lon;timestamp;P1;durP1;ratioP1;P2;durP2;ratioP2
70335;SDS011;57756;47.408;18.940;2023-08-21T00:01:52;1.00;;;0.60;;
70335;SDS011;57756;47.408;18.940;2023-08-21T00:04:18;1.25;;;0.82;;
70335;SDS011;57756;47.408;18.940;2023-08-21T00:06:43;1.77;;;1.30;;
70335;SDS011;57756;47.408;18.940;2023-08-21T00:09:09;1.67;;;0.50;;
70335;SDS011;57756;47.408;18.940;2023-08-21T00:11:34;2.28;;;1.35;;
70335;SDS011;57756;47.408;18.940;2023-08-21T00:14:00;1.57;;;0.90;;
70335;SDS011;57756;47.408;18.940;2023-08-21T00:16:25;4.15;;;1.42;;
70335;SDS011;57756;47.408;18.940;2023-08-21T00:18:52;1.47;;;0.87;;
70335;SDS011;57756;47.408;18.940;2023-08-21T00:21:18;1.70;;;1.08;;
70335;SDS011;57756;47.408;18.940;2023-08-21T00:23:44;1.88;;;1.10;;
70335;SDS011;57756;47.408;18.940;2023-08-21T00:26:10;1.60;;;1.10;;
70335;SDS011;57756;47.408;18.940;2023-08-21T00:28:35;3.42;;;1.13;;
70335;SDS011;57756;47.408;18.940;2023-08-21T00:31:04;1.57;;;0.90;;
70335;SDS011;57756;47.408;18.940;2023-08-21T00:33:30;3.10;;;1.08;;
70335;SDS011;57756;47.408;18.940;2023-08-21T00:35:57;1.15;;;0.70;;
70335;SDS011;57756;47.408;18.940;2023-08-21T00:38:23;2.63;;;1.50;;
70335;SDS011;57756;47.408;18.940;2023-08-21T00:40:49;1.90;;;1.20;;
70335;SDS011;57756;47.408;18.940;2023-08-21T00:43:14;2.35;;;1.00;;
70335;SDS011;57756;47.408;18.940;2023-08-21T00:45:41;1.57;;;0.70;;
70335;SDS011;57756;47.408;18.940;2023-08-21T00:48:07;2.83;;;1.23;;
70335;SDS011;57756;47.408;18.940;2023-08-21T00:50:33;3.08;;;1.05;;
70335;SDS011;57756;47.408;18.940;2023-08-21T00:52:59;2.03;;;1.10;;
70335;SDS011;57756;47.408;18.940;2023-08-21T00:55:25;2.00;;;1.25;;
70335;SDS011;57756;47.408;18.940;2023-08-21T00:57:51;1.40;;;1.00;;
70335;SDS011;57756;47.408;18.940;2023-08-21T01:00:16;1.75;;;0.85;;
70335;SDS011;57756;47.408;18.940;2023-08-21T01:02:42;2.03;;;0.97;;
70335;SDS011;57756;47.408;18.940;2023-08-21T01:05:08;1.43;;;0.60;;
70335;SDS011;57756;47.408;18.940;2023-08-21T01:07:36;1.10;;;0.70;;
70335;SDS011;57756;47.408;18.940;2023-08-21T01:10:11;1.20;;;1.00;;
70335;SDS011;57756;47.408;18.940;2023-08-21T01:12:44;1.00;;;0.55;;
70335;SDS011;57756;47.408;18.940;2023-08-21T01:15:11;1.10;;;0.50;;
70335;SDS011;57756;47.408;18.940;2023-08-21T01:17:37;1.38;;;0.98;;
70335;SDS011;57756;47.408;18.940;2023-08-21T01:20:04;1.98;;;1.33;;
70335;SDS011;57756;47.408;18.940;2023-08-21T01:22:38;1.25;;;0.50;;
70335;SDS011;57756;47.408;18.940;2023-08-21T01:25:05;1.17;;;0.95;;
70335;SDS011;57756;47.408;18.940;2023-08-21T01:27:32;0.77;;;0.40;;
70335;SDS011;57756;47.408;18.940;2023-08-21T01:29:59;1.23;;;0.73;;
70335;SDS011;57756;47.408;18.940;2023-08-21T01:34:51;1.97;;;1.10;;
70335;SDS011;57756;47.408;18.940;2023-08-21T01:37:20;1.48;;;0.90;;
70335;SDS011;57756;47.408;18.940;2023-08-21T01:39:46;0.90;;;0.52;;
70335;SDS011;57756;47.408;18.940;2023-08-21T01:42:11;1.37;;;0.60;;
70335;SDS011;57756;47.408;18.940;2023-08-21T01:44:37;1.47;;;0.50;;
70335;SDS011;57756;47.408;18.940;2023-08-21T01:47:02;1.08;;;0.30;;
70335;SDS011;57756;47.408;18.940;2023-08-21T01:49:28;2.10;;;0.77;;
70335;SDS011;57756;47.408;18.940;2023-08-21T01:51:53;0.98;;;0.55;;
70335;SDS011;57756;47.408;18.940;2023-08-21T01:54:19;1.43;;;1.07;;
70335;SDS011;57756;47.408;18.940;2023-08-21T01:56:44;0.77;;;0.47;;
70335;SDS011;57756;47.408;18.940;2023-08-21T01:59:10;1.10;;;0.57;;
70335;SDS011;57756;47.408;18.940;2023-08-21T02:01:35;1.60;;;0.63;;
70335;SDS011;57756;47.408;18.940;2023-08-21T02:04:01;0.80;;;0.40;;
70335;SDS011;57756;47.408;18.940;2023-08-21T02:06:26;1.33;;;0.77;;
70335;SDS011;57756;47.408;18.940;2023-08-21T02:08:51;0.67;;;0.23;;
70335;SDS011;57756;47.408;18.940;2023-08-21T02:11:17;1.00;;;0.57;;
70335;SDS011;57756;47.408;18.940;2023-08-21T02:13:42;3.03;;;0.70;;
70335;SDS011;57756;47.408;18.940;2023-08-21T02:16:08;1.10;;;0.60;;
70335;SDS011;57756;47.408;18.940;2023-08-21T02:18:33;0.90;;;0.50;;
70335;SDS011;57756;47.408;18.940;2023-08-21T02:21:02;0.70;;;0.40;;
70335;SDS011;57756;47.408;18.940;2023-08-21T02:23:27;0.70;;;0.52;;
70335;SDS011;57756;47.408;18.940;2023-08-21T02:25:54;0.80;;;0.47;;
70335;SDS011;57756;47.408;18.940;2023-08-21T02:28:19;0.93;;;0.53;;
70335;SDS011;57756;47.408;18.940;2023-08-21T02:30:45;1.75;;;1.08;;
70335;SDS011;57756;47.408;18.940;2023-08-21T02:33:10;0.70;;;0.40;;
70335;SDS011;57756;47.408;18.940;2023-08-21T02:35:36;0.97;;;0.60;;
70335;SDS011;57756;47.408;18.940;2023-08-21T02:38:01;3.03;;;0.70;;
70335;SDS011;57756;47.408;18.940;2023-08-21T02:40:27;5.13;;;1.03;;
70335;SDS011;57756;47.408;18.940;2023-08-21T02:42:52;0.50;;;0.20;;
70335;SDS011;57756;47.408;18.940;2023-08-21T02:45:18;1.38;;;0.73;;
70335;SDS011;57756;47.408;18.940;2023-08-21T02:47:44;0.77;;;0.27;;
70335;SDS011;57756;47.408;18.940;2023-08-21T02:50:10;0.77;;;0.50;;
70335;SDS011;57756;47.408;18.940;2023-08-21T02:52:36;2.00;;;1.05;;
70335;SDS011;57756;47.408;18.940;2023-08-21T02:55:02;1.27;;;0.70;;
70335;SDS011;57756;47.408;18.940;2023-08-21T02:57:29;0.90;;;0.35;;
70335;SDS011;57756;47.408;18.940;2023-08-21T02:59:55;1.00;;;0.40;;
70335;SDS011;57756;47.408;18.940;2023-08-21T03:02:20;0.90;;;0.73;;
70335;SDS011;57756;47.408;18.940;2023-08-21T03:04:46;0.93;;;0.50;;
70335;SDS011;57756;47.408;18.940;2023-08-21T03:07:13;1.47;;;0.57;;
70335;SDS011;57756;47.408;18.940;2023-08-21T03:09:39;1.25;;;0.73;;
70335;SDS011;57756;47.408;18.940;2023-08-21T03:12:05;1.13;;;0.60;;
70335;SDS011;57756;47.408;18.940;2023-08-21T03:14:32;3.05;;;0.88;;
70335;SDS011;57756;47.408;18.940;2023-08-21T03:16:57;0.80;;;0.53;;
70335;SDS011;57756;47.408;18.940;2023-08-21T03:19:22;1.67;;;0.93;;
70335;SDS011;57756;47.408;18.940;2023-08-21T03:21:48;0.80;;;0.38;;
70335;SDS011;57756;47.408;18.940;2023-08-21T03:24:14;0.97;;;0.53;;
70335;SDS011;57756;47.408;18.940;2023-08-21T03:26:39;0.60;;;0.30;;
70335;SDS011;57756;47.408;18.940;2023-08-21T03:29:05;1.37;;;0.80;;
70335;SDS011;57756;47.408;18.940;2023-08-21T03:31:30;0.90;;;0.67;;
70335;SDS011;57756;47.408;18.940;2023-08-21T03:33:56;0.80;;;0.30;;
70335;SDS011;57756;47.408;18.940;2023-08-21T03:36:22;0.90;;;0.50;;
70335;SDS011;57756;47.408;18.940;2023-08-21T03:38:56;1.48;;;1.17;;
70335;SDS011;57756;47.408;18.940;2023-08-21T03:41:22;0.93;;;0.43;;
70335;SDS011;57756;47.408;18.940;2023-08-21T03:43:47;0.87;;;0.40;;
70335;SDS011;57756;47.408;18.940;2023-08-21T03:46:13;0.77;;;0.40;;
70335;SDS011;57756;47.408;18.940;2023-08-21T03:48:38;1.60;;;0.73;;
70335;SDS011;57756;47.408;18.940;2023-08-21T03:51:04;1.15;;;1.05;;
70335;SDS011;57756;47.408;18.940;2023-08-21T03:53:29;1.77;;;0.87;;
70335;SDS011;57756;47.408;18.940;2023-08-21T03:55:54;1.13;;;0.57;;
70335;SDS011;57756;47.408;18.940;2023-08-21T03:58:20;1.52;;;0.90;;
70335;SDS011;57756;47.408;18.940;2023-08-21T04:00:45;1.50;;;0.47;;
70335;SDS011;57756;47.408;18.940;2023-08-21T04:03:11;1.08;;;0.47;;
70335;SDS011;57756;47.408;18.940;2023-08-21T04:05:37;0.70;;;0.40;;
70335;SDS011;57756;47.408;18.940;2023-08-21T04:08:02;1.00;;;0.60;;
70335;SDS011;57756;47.408;18.940;2023-08-21T04:10:28;1.40;;;0.82;;
70335;SDS011;57756;47.408;18.940;2023-08-21T04:12:53;1.03;;;0.77;;
70335;SDS011;57756;47.408;18.940;2023-08-21T04:15:19;0.60;;;0.30;;
70335;SDS011;57756;47.408;18.940;2023-08-21T04:17:44;0.85;;;0.57;;
70335;SDS011;57756;47.408;18.940;2023-08-21T04:20:10;0.80;;;0.50;;
70335;SDS011;57756;47.408;18.940;2023-08-21T04:22:36;1.73;;;0.85;;
70335;SDS011;57756;47.408;18.940;2023-08-21T04:25:01;0.80;;;0.33;;
70335;SDS011;57756;47.408;18.940;2023-08-21T04:27:26;1.23;;;0.43;;
70335;SDS011;57756;47.408;18.940;2023-08-21T04:29:53;1.30;;;0.82;;
70335;SDS011;57756;47.408;18.940;2023-08-21T04:32:18;0.80;;;0.40;;
70335;SDS011;57756;47.408;18.940;2023-08-21T04:34:43;0.82;;;0.47;;
70335;SDS011;57756;47.408;18.940;2023-08-21T04:37:09;1.70;;;0.70;;
70335;SDS011;57756;47.408;18.940;2023-08-21T04:39:34;2.10;;;0.90;;
70335;SDS011;57756;47.408;18.940;2023-08-21T04:42:01;1.15;;;0.65;;
70335;SDS011;57756;47.408;18.940;2023-08-21T04:44:27;0.80;;;0.43;;
70335;SDS011;57756;47.408;18.940;2023-08-21T04:46:52;0.70;;;0.37;;
70335;SDS011;57756;47.408;18.940;2023-08-21T04:49:18;1.00;;;0.33;;
70335;SDS011;57756;47.408;18.940;2023-08-21T04:51:43;0.63;;;0.30;;
70335;SDS011;57756;47.408;18.940;2023-08-21T04:54:08;2.15;;;0.85;;
70335;SDS011;57756;47.408;18.940;2023-08-21T04:56:34;1.23;;;0.60;;
70335;SDS011;57756;47.408;18.940;2023-08-21T04:58:59;1.50;;;1.10;;
70335;SDS011;57756;47.408;18.940;2023-08-21T05:01:25;1.90;;;1.30;;
70335;SDS011;57756;47.408;18.940;2023-08-21T05:03:51;1.85;;;1.33;;
70335;SDS011;57756;47.408;18.940;2023-08-21T05:06:16;0.83;;;0.57;;
70335;SDS011;57756;47.408;18.940;2023-08-21T05:08:42;1.55;;;1.20;;
70335;SDS011;57756;47.408;18.940;2023-08-21T05:11:07;0.83;;;0.40;;
70335;SDS011;57756;47.408;18.940;2023-08-21T05:13:33;1.60;;;0.73;;
70335;SDS011;57756;47.408;18.940;2023-08-21T05:15:58;2.25;;;0.80;;
70335;SDS011;57756;47.408;18.940;2023-08-21T05:18:24;1.60;;;0.60;;
70335;SDS011;57756;47.408;18.940;2023-08-21T05:20:50;1.83;;;0.70;;
70335;SDS011;57756;47.408;18.940;2023-08-21T05:23:18;1.05;;;0.60;;
70335;SDS011;57756;47.408;18.940;2023-08-21T05:25:44;1.10;;;0.60;;
70335;SDS011;57756;47.408;18.940;2023-08-21T05:28:10;1.80;;;0.98;;
70335;SDS011;57756;47.408;18.940;2023-08-21T05:30:36;1.00;;;0.60;;
70335;SDS011;57756;47.408;18.940;2023-08-21T05:33:03;2.03;;;1.23;;
70335;SDS011;57756;47.408;18.940;2023-08-21T05:35:32;2.92;;;1.08;;
70335;SDS011;57756;47.408;18.940;2023-08-21T05:38:01;2.22;;;0.98;;
70335;SDS011;57756;47.408;18.940;2023-08-21T05:40:29;2.73;;;1.10;;
70335;SDS011;57756;47.408;18.940;2023-08-21T05:42:55;1.88;;;0.55;;
70335;SDS011;57756;47.408;18.940;2023-08-21T05:45:21;1.97;;;1.23;;
70335;SDS011;57756;47.408;18.940;2023-08-21T05:47:46;1.20;;;0.65;;
70335;SDS011;57756;47.408;18.940;2023-08-21T05:50:12;2.63;;;1.40;;
70335;SDS011;57756;47.408;18.940;2023-08-21T05:52:37;1.13;;;0.80;;
70335;SDS011;57756;47.408;18.940;2023-08-21T05:55:03;2.80;;;1.87;;
70335;SDS011;57756;47.408;18.940;2023-08-21T05:57:30;2.17;;;1.13;;
70335;SDS011;57756;47.408;18.940;2023-08-21T05:59:55;2.07;;;1.37;;
70335;SDS011;57756;47.408;18.940;2023-08-21T06:02:20;2.33;;;1.23;;
70335;SDS011;57756;47.408;18.940;2023-08-21T06:04:46;2.40;;;1.10;;
70335;SDS011;57756;47.408;18.940;2023-08-21T06:07:11;2.93;;;1.70;;
70335;SDS011;57756;47.408;18.940;2023-08-21T06:09:37;2.23;;;1.10;;
70335;SDS011;57756;47.408;18.940;2023-08-21T06:12:03;3.13;;;1.50;;
70335;SDS011;57756;47.408;18.940;2023-08-21T06:14:28;2.35;;;1.10;;
70335;SDS011;57756;47.408;18.940;2023-08-21T06:16:58;1.88;;;1.17;;
70335;SDS011;57756;47.408;18.940;2023-08-21T06:19:25;3.08;;;1.67;;
70335;SDS011;57756;47.408;18.940;2023-08-21T06:21:50;2.77;;;1.30;;
70335;SDS011;57756;47.408;18.940;2023-08-21T06:24:16;2.40;;;1.50;;
70335;SDS011;57756;47.408;18.940;2023-08-21T06:26:42;3.47;;;1.60;;
70335;SDS011;57756;47.408;18.940;2023-08-21T06:29:07;6.63;;;1.50;;
70335;SDS011;57756;47.408;18.940;2023-08-21T06:31:33;2.67;;;1.52;;
70335;SDS011;57756;47.408;18.940;2023-08-21T06:33:58;2.13;;;1.53;;
70335;SDS011;57756;47.408;18.940;2023-08-21T06:36:24;2.87;;;1.73;;
70335;SDS011;57756;47.408;18.940;2023-08-21T06:38:49;2.67;;;1.85;;
70335;SDS011;57756;47.408;18.940;2023-08-21T06:41:15;2.90;;;1.43;;
70335;SDS011;57756;47.408;18.940;2023-08-21T06:43:40;2.93;;;2.13;;
70335;SDS011;57756;47.408;18.940;2023-08-21T06:46:06;3.13;;;1.98;;
70335;SDS011;57756;47.408;18.940;2023-08-21T06:48:32;2.42;;;1.67;;
70335;SDS011;57756;47.408;18.940;2023-08-21T06:50:57;3.67;;;1.97;;
70335;SDS011;57756;47.408;18.940;2023-08-21T06:53:23;2.40;;;1.53;;
70335;SDS011;57756;47.408;18.940;2023-08-21T06:55:49;2.53;;;1.80;;
70335;SDS011;57756;47.408;18.940;2023-08-21T06:58:14;2.57;;;1.80;;
70335;SDS011;57756;47.408;18.940;2023-08-21T07:00:40;3.00;;;1.58;;
70335;SDS011;57756;47.408;18.940;2023-08-21T07:03:05;4.17;;;2.10;;
70335;SDS011;57756;47.408;18.940;2023-08-21T07:05:33;2.85;;;2.25;;
70335;SDS011;57756;47.408;18.940;2023-08-21T07:07:58;3.00;;;2.08;;
70335;SDS011;57756;47.408;18.940;2023-08-21T07:10:24;2.43;;;1.80;;
70335;SDS011;57756;47.408;18.940;2023-08-21T07:12:50;2.60;;;1.85;;
70335;SDS011;57756;47.408;18.940;2023-08-21T07:15:16;2.87;;;1.70;;
70335;SDS011;57756;47.408;18.940;2023-08-21T07:17:41;2.58;;;1.77;;
70335;SDS011;57756;47.408;18.940;2023-08-21T07:20:07;2.70;;;1.63;;
70335;SDS011;57756;47.408;18.940;2023-08-21T07:22:33;2.90;;;1.83;;
70335;SDS011;57756;47.408;18.940;2023-08-21T07:24:58;2.63;;;1.70;;
70335;SDS011;57756;47.408;18.940;2023-08-21T07:27:26;3.25;;;1.83;;
70335;SDS011;57756;47.408;18.940;2023-08-21T07:29:52;3.47;;;2.00;;
70335;SDS011;57756;47.408;18.940;2023-08-21T07:32:17;2.50;;;1.98;;
70335;SDS011;57756;47.408;18.940;2023-08-21T07:34:43;2.83;;;2.00;;
70335;SDS011;57756;47.408;18.940;2023-08-21T07:37:08;2.63;;;1.90;;
70335;SDS011;57756;47.408;18.940;2023-08-21T07:39:34;2.63;;;1.83;;
70335;SDS011;57756;47.408;18.940;2023-08-21T07:42:00;2.60;;;1.90;;
70335;SDS011;57756;47.408;18.940;2023-08-21T07:44:26;2.55;;;1.88;;
70335;SDS011;57756;47.408;18.940;2023-08-21T07:46:52;3.30;;;2.30;;
70335;SDS011;57756;47.408;18.940;2023-08-21T07:49:17;2.72;;;1.95;;
70335;SDS011;57756;47.408;18.940;2023-08-21T07:51:43;2.33;;;1.77;;
70335;SDS011;57756;47.408;18.940;2023-08-21T07:54:08;2.60;;;2.00;;
70335;SDS011;57756;47.408;18.940;2023-08-21T07:56:33;3.75;;;2.60;;
70335;SDS011;57756;47.408;18.940;2023-08-21T07:59:01;4.53;;;2.10;;
70335;SDS011;57756;47.408;18.940;2023-08-21T08:01:27;2.88;;;2.15;;
70335;SDS011;57756;47.408;18.940;2023-08-21T08:03:52;2.57;;;2.00;;
70335;SDS011;57756;47.408;18.940;2023-08-21T08:06:18;3.03;;;2.03;;
70335;SDS011;57756;47.408;18.940;2023-08-21T08:08:44;2.60;;;1.80;;
70335;SDS011;57756;47.408;18.940;2023-08-21T08:11:09;3.03;;;2.05;;
70335;SDS011;57756;47.408;18.940;2023-08-21T08:13:35;3.10;;;2.10;;
70335;SDS011;57756;47.408;18.940;2023-08-21T08:16:00;2.60;;;2.00;;
70335;SDS011;57756;47.408;18.940;2023-08-21T08:18:26;3.47;;;2.42;;
70335;SDS011;57756;47.408;18.940;2023-08-21T08:20:51;3.40;;;2.47;;
70335;SDS011;57756;47.408;18.940;2023-08-21T08:23:19;2.63;;;1.88;;
70335;SDS011;57756;47.408;18.940;2023-08-21T08:25:45;3.50;;;2.35;;
70335;SDS011;57756;47.408;18.940;2023-08-21T08:28:11;3.70;;;2.77;;
70335;SDS011;57756;47.408;18.940;2023-08-21T08:30:36;3.10;;;2.27;;
70335;SDS011;57756;47.408;18.940;2023-08-21T08:33:01;3.27;;;2.17;;
70335;SDS011;57756;47.408;18.940;2023-08-21T08:35:27;2.70;;;2.20;;
70335;SDS011;57756;47.408;18.940;2023-08-21T08:37:53;2.80;;;2.33;;
70335;SDS011;57756;47.408;18.940;2023-08-21T08:40:18;2.50;;;1.95;;
70335;SDS011;57756;47.408;18.940;2023-08-21T08:42:44;2.83;;;2.13;;
70335;SDS011;57756;47.408;18.940;2023-08-21T08:45:09;3.53;;;2.50;;
70335;SDS011;57756;47.408;18.940;2023-08-21T08:47:38;2.87;;;2.40;;
70335;SDS011;57756;47.408;18.940;2023-08-21T08:50:06;3.47;;;2.60;;
70335;SDS011;57756;47.408;18.940;2023-08-21T08:52:37;3.13;;;2.35;;
70335;SDS011;57756;47.408;18.940;2023-08-21T08:55:03;3.17;;;2.45;;
70335;SDS011;57756;47.408;18.940;2023-08-21T08:57:31;2.70;;;2.17;;
70335;SDS011;57756;47.408;18.940;2023-08-21T08:59:57;4.10;;;2.80;;
70335;SDS011;57756;47.408;18.940;2023-08-21T09:02:24;2.90;;;2.00;;
70335;SDS011;57756;47.408;18.940;2023-08-21T09:04:51;6.80;;;2.40;;
70335;SDS011;57756;47.408;18.940;2023-08-21T09:07:17;3.17;;;2.30;;
70335;SDS011;57756;47.408;18.940;2023-08-21T09:09:47;3.78;;;2.85;;
70335;SDS011;57756;47.408;18.940;2023-08-21T09:12:15;3.25;;;2.60;;
70335;SDS011;57756;47.408;18.940;2023-08-21T09:14:42;3.17;;;2.63;;
70335;SDS011;57756;47.408;18.940;2023-08-21T09:17:08;3.42;;;2.65;;
70335;SDS011;57756;47.408;18.940;2023-08-21T09:19:34;3.45;;;2.45;;
70335;SDS011;57756;47.408;18.940;2023-08-21T09:22:10;3.80;;;2.50;;
70335;SDS011;57756;47.408;18.940;2023-08-21T09:24:38;2.80;;;2.10;;
70335;SDS011;57756;47.408;18.940;2023-08-21T09:27:04;3.47;;;2.13;;
70335;SDS011;57756;47.408;18.940;2023-08-21T09:29:39;2.67;;;2.15;;
70335;SDS011;57756;47.408;18.940;2023-08-21T09:32:08;2.53;;;1.60;;
70335;SDS011;57756;47.408;18.940;2023-08-21T09:34:34;3.95;;;2.55;;
70335;SDS011;57756;47.408;18.940;2023-08-21T09:37:06;3.20;;;2.22;;
70335;SDS011;57756;47.408;18.940;2023-08-21T09:39:34;3.42;;;3.13;;
70335;SDS011;57756;47.408;18.940;2023-08-21T09:42:01;3.80;;;2.53;;
70335;SDS011;57756;47.408;18.940;2023-08-21T09:44:39;3.15;;;2.20;;
70335;SDS011;57756;47.408;18.940;2023-08-21T09:47:09;3.05;;;2.47;;
70335;SDS011;57756;47.408;18.940;2023-08-21T09:49:37;4.13;;;2.90;;
70335;SDS011;57756;47.408;18.940;2023-08-21T09:52:04;3.58;;;2.72;;
70335;SDS011;57756;47.408;18.940;2023-08-21T09:54:31;2.77;;;2.33;;
70335;SDS011;57756;47.408;18.940;2023-08-21T09:57:01;4.82;;;2.95;;
70335;SDS011;57756;47.408;18.940;2023-08-21T09:59:28;3.05;;;2.25;;
70335;SDS011;57756;47.408;18.940;2023-08-21T10:01:55;4.18;;;2.38;;
70335;SDS011;57756;47.408;18.940;2023-08-21T10:04:27;3.33;;;2.63;;
70335;SDS011;57756;47.408;18.940;2023-08-21T10:06:54;5.17;;;2.80;;
70335;SDS011;57756;47.408;18.940;2023-08-21T10:09:22;3.47;;;2.63;;
70335;SDS011;57756;47.408;18.940;2023-08-21T10:11:50;2.72;;;2.28;;
70335;SDS011;57756;47.408;18.940;2023-08-21T10:14:18;3.58;;;2.45;;
70335;SDS011;57756;47.408;18.940;2023-08-21T10:16:44;3.70;;;2.90;;
70335;SDS011;57756;47.408;18.940;2023-08-21T10:19:12;3.03;;;2.35;;
70335;SDS011;57756;47.408;18.940;2023-08-21T10:21:39;3.90;;;2.42;;
70335;SDS011;57756;47.408;18.940;2023-08-21T10:24:05;3.63;;;2.93;;
70335;SDS011;57756;47.408;18.940;2023-08-21T10:26:30;3.50;;;2.60;;
70335;SDS011;57756;47.408;18.940;2023-08-21T10:31:31;3.53;;;2.43;;
70335;SDS011;57756;47.408;18.940;2023-08-21T10:33:58;2.42;;;1.95;;
70335;SDS011;57756;47.408;18.940;2023-08-21T10:37:10;3.25;;;2.28;;
70335;SDS011;57756;47.408;18.940;2023-08-21T10:39:20;2.97;;;2.22;;
70335;SDS011;57756;47.408;18.940;2023-08-21T10:41:54;2.90;;;2.38;;
70335;SDS011;57756;47.408;18.940;2023-08-21T10:49:53;4.53;;;2.95;;
70335;SDS011;57756;47.408;18.940;2023-08-21T10:52:30;2.78;;;2.17;;
70335;SDS011;57756;47.408;18.940;2023-08-21T10:55:00;3.63;;;2.88;;
70335;SDS011;57756;47.408;18.940;2023-08-21T10:57:27;3.10;;;2.70;;
70335;SDS011;57756;47.408;18.940;2023-08-21T10:59:58;3.78;;;2.10;;
70335;SDS011;57756;47.408;18.940;2023-08-21T11:02:35;4.75;;;2.40;;
70335;SDS011;57756;47.408;18.940;2023-08-21T11:05:01;3.42;;;2.65;;
70335;SDS011;57756;47.408;18.940;2023-08-21T11:07:28;3.33;;;2.55;;
70335;SDS011;57756;47.408;18.940;2023-08-21T11:09:54;3.00;;;2.60;;
70335;SDS011;57756;47.408;18.940;2023-08-21T11:12:23;4.15;;;2.78;;
70335;SDS011;57756;47.408;18.940;2023-08-21T11:14:49;3.83;;;2.60;;
70335;SDS011;57756;47.408;18.940;2023-08-21T11:17:15;3.03;;;2.40;;
70335;SDS011;57756;47.408;18.940;2023-08-21T11:19:42;2.60;;;1.90;;
70335;SDS011;57756;47.408;18.940;2023-08-21T11:22:08;2.90;;;2.60;;
70335;SDS011;57756;47.408;18.940;2023-08-21T11:27:02;3.85;;;2.50;;
70335;SDS011;57756;47.408;18.940;2023-08-21T11:29:30;3.78;;;2.55;;
70335;SDS011;57756;47.408;18.940;2023-08-21T11:32:02;3.13;;;2.70;;
70335;SDS011;57756;47.408;18.940;2023-08-21T11:34:28;2.67;;;2.20;;
70335;SDS011;57756;47.408;18.940;2023-08-21T11:36:54;2.95;;;2.58;;
70335;SDS011;57756;47.408;18.940;2023-08-21T11:39:20;3.10;;;2.75;;
70335;SDS011;57756;47.408;18.940;2023-08-21T11:41:56;3.25;;;2.75;;
70335;SDS011;57756;47.408;18.940;2023-08-21T11:44:22;3.43;;;2.50;;
70335;SDS011;57756;47.408;18.940;2023-08-21T11:46:47;2.95;;;2.45;;
70335;SDS011;57756;47.408;18.940;2023-08-21T11:49:16;3.97;;;2.53;;
70335;SDS011;57756;47.408;18.940;2023-08-21T11:51:43;2.20;;;1.40;;
70335;SDS011;57756;47.408;18.940;2023-08-21T11:54:10;2.17;;;1.50;;
70335;SDS011;57756;47.408;18.940;2023-08-21T11:56:35;3.17;;;2.00;;
70335;SDS011;57756;47.408;18.940;2023-08-21T11:59:03;2.37;;;1.77;;
70335;SDS011;57756;47.408;18.940;2023-08-21T12:01:32;2.47;;;1.90;;
70335;SDS011;57756;47.408;18.940;2023-08-21T12:03:58;2.83;;;2.05;;
70335;SDS011;57756;47.408;18.940;2023-08-21T12:06:24;2.33;;;1.57;;
70335;SDS011;57756;47.408;18.940;2023-08-21T12:08:57;2.45;;;2.00;;
70335;SDS011;57756;47.408;18.940;2023-08-21T12:11:22;2.80;;;2.03;;
70335;SDS011;57756;47.408;18.940;2023-08-21T12:13:49;3.08;;;2.13;;
70335;SDS011;57756;47.408;18.940;2023-08-21T12:16:16;2.45;;;1.90;;
70335;SDS011;57756;47.408;18.940;2023-08-21T12:18:42;2.73;;;2.03;;
70335;SDS011;57756;47.408;18.940;2023-08-21T12:21:07;3.03;;;2.07;;
70335;SDS011;57756;47.408;18.940;2023-08-21T12:23:33;2.15;;;1.40;;
70335;SDS011;57756;47.408;18.940;2023-08-21T12:25:59;3.20;;;2.10;;
70335;SDS011;57756;47.408;18.940;2023-08-21T12:28:24;3.28;;;2.17;;
70335;SDS011;57756;47.408;18.940;2023-08-21T12:30:50;3.07;;;2.07;;
70335;SDS011;57756;47.408;18.940;2023-08-21T12:33:15;2.30;;;1.80;;
70335;SDS011;57756;47.408;18.940;2023-08-21T12:35:41;2.50;;;1.80;;
70335;SDS011;57756;47.408;18.940;2023-08-21T12:38:10;3.60;;;1.30;;
70335;SDS011;57756;47.408;18.940;2023-08-21T12:40:37;2.80;;;2.30;;
70335;SDS011;57756;47.408;18.940;2023-08-21T12:43:03;3.43;;;2.50;;
70335;SDS011;57756;47.408;18.940;2023-08-21T12:45:28;3.45;;;2.17;;
70335;SDS011;57756;47.408;18.940;2023-08-21T12:47:54;3.33;;;2.30;;
70335;SDS011;57756;47.408;18.940;2023-08-21T12:50:19;3.30;;;2.30;;
70335;SDS011;57756;47.408;18.940;2023-08-21T12:52:45;2.75;;;1.77;;
70335;SDS011;57756;47.408;18.940;2023-08-21T12:55:10;2.87;;;2.23;;
70335;SDS011;57756;47.408;18.940;2023-08-21T12:57:36;3.00;;;1.83;;
70335;SDS011;57756;47.408;18.940;2023-08-21T13:00:01;2.45;;;1.95;;
70335;SDS011;57756;47.408;18.940;2023-08-21T13:02:27;2.33;;;1.53;;
70335;SDS011;57756;47.408;18.940;2023-08-21T13:04:53;3.08;;;2.10;;
70335;SDS011;57756;47.408;18.940;2023-08-21T13:07:18;1.87;;;1.33;;
70335;SDS011;57756;47.408;18.940;2023-08-21T13:09:44;2.42;;;1.65;;
70335;SDS011;57756;47.408;18.940;2023-08-21T13:12:09;2.87;;;1.97;;
70335;SDS011;57756;47.408;18.940;2023-08-21T13:14:35;2.97;;;2.03;;
70335;SDS011;57756;47.408;18.940;2023-08-21T13:17:00;2.30;;;1.63;;
70335;SDS011;57756;47.408;18.940;2023-08-21T13:19:26;2.20;;;1.48;;
70335;SDS011;57756;47.408;18.940;2023-08-21T13:21:51;3.00;;;2.13;;
70335;SDS011;57756;47.408;18.940;2023-08-21T13:24:18;2.88;;;1.80;;
70335;SDS011;57756;47.408;18.940;2023-08-21T13:26:44;3.40;;;2.20;;
70335;SDS011;57756;47.408;18.940;2023-08-21T13:29:09;4.30;;;2.10;;
70335;SDS011;57756;47.408;18.940;2023-08-21T13:31:34;4.70;;;2.20;;
70335;SDS011;57756;47.408;18.940;2023-08-21T13:34:00;2.60;;;1.93;;
70335;SDS011;57756;47.408;18.940;2023-08-21T13:36:26;3.50;;;1.83;;
70335;SDS011;57756;47.408;18.940;2023-08-21T13:38:52;1.80;;;1.08;;
70335;SDS011;57756;47.408;18.940;2023-08-21T13:41:17;2.83;;;2.03;;
70335;SDS011;57756;47.408;18.940;2023-08-21T13:43:43;2.83;;;1.87;;
70335;SDS011;57756;47.408;18.940;2023-08-21T13:46:08;2.90;;;2.03;;
70335;SDS011;57756;47.408;18.940;2023-08-21T13:48:34;1.98;;;1.20;;
70335;SDS011;57756;47.408;18.940;2023-08-21T13:50:59;1.97;;;1.27;;
70335;SDS011;57756;47.408;18.940;2023-08-21T13:53:25;2.83;;;2.10;;
70335;SDS011;57756;47.408;18.940;2023-08-21T13:55:50;1.70;;;1.10;;
70335;SDS011;57756;47.408;18.940;2023-08-21T13:58:16;2.97;;;1.63;;
70335;SDS011;57756;47.408;18.940;2023-08-21T14:00:42;2.15;;;1.42;;
70335;SDS011;57756;47.408;18.940;2023-08-21T14:03:07;2.63;;;1.43;;
70335;SDS011;57756;47.408;18.940;2023-08-21T14:05:33;2.38;;;1.55;;
70335;SDS011;57756;47.408;18.940;2023-08-21T14:07:58;2.63;;;1.53;;
70335;SDS011;57756;47.408;18.940;2023-08-21T14:10:24;3.17;;;1.75;;
70335;SDS011;57756;47.408;18.940;2023-08-21T14:12:51;2.60;;;1.73;;
70335;SDS011;57756;47.408;18.940;2023-08-21T14:15:16;3.63;;;2.30;;
70335;SDS011;57756;47.408;18.940;2023-08-21T14:17:43;2.20;;;1.55;;
70335;SDS011;57756;47.408;18.940;2023-08-21T14:20:09;2.53;;;1.98;;
70335;SDS011;57756;47.408;18.940;2023-08-21T14:22:36;3.67;;;2.40;;
70335;SDS011;57756;47.408;18.940;2023-08-21T14:25:02;2.88;;;2.30;;
70335;SDS011;57756;47.408;18.940;2023-08-21T14:27:30;2.40;;;1.60;;
70335;SDS011;57756;47.408;18.940;2023-08-21T14:29:56;3.05;;;1.88;;
70335;SDS011;57756;47.408;18.940;2023-08-21T14:32:22;3.22;;;1.55;;
70335;SDS011;57756;47.408;18.940;2023-08-21T14:34:48;2.80;;;2.00;;
70335;SDS011;57756;47.408;18.940;2023-08-21T14:37:13;3.30;;;1.98;;
70335;SDS011;57756;47.408;18.940;2023-08-21T14:39:40;2.90;;;1.90;;
70335;SDS011;57756;47.408;18.940;2023-08-21T14:42:07;3.60;;;2.45;;